Time;durP1;ratioP1;P1;durP2;ratioP2;P2;SDS_P1;SDS_P2;PMS_P1;PMS_P2;Temp;Humidity;BMP_temperature;BMP_pressure;BME280_temperature;BME280_humidity;BME280_pressure;Samples;Min_cycle;Max_cycle;Signal;HPM_P1;HPM_P2
2022/06/16 00:00:53;;;;;;;11.90;2.90;;;;;;;;;;5093476;28;20032;-81
2022/06/16 00:03:19;;;;;;;13.45;3.20;;;;;;;;;;5074714;28;20119;-80
2022/06/16 00:05:45;;;;;;;11.35;3.08;;;;;;;;;;5093192;28;20093;-80
2022/06/16 00:08:13;;;;;;;8.38;2.63;;;;;;;;;;5092696;28;20403;-80
2022/06/16 00:13:23;;;;;;;12.55;2.90;;;;;;;;;;5093596;28;20442;-81
2022/06/16 00:15:49;;;;;;;12.40;3.28;;;;;;;;;;5093437;28;20032;-81
2022/06/16 00:18:14;;;;;;;14.07;3.10;;;;;;;;;;5092965;28;20532;-77
2022/06/16 00:20:39;;;;;;;7.10;2.88;;;;;;;;;;5092684;28;20024;-81
2022/06/16 00:23:05;;;;;;;12.52;2.80;;;;;;;;;;5092881;28;20072;-81
2022/06/16 00:25:32;;;;;;;7.18;2.65;;;;;;;;;;5093063;28;20080;-78
2022/06/16 00:27:57;;;;;;;9.02;2.72;;;;;;;;;;5092434;28;20031;-81
2022/06/16 00:30:23;;;;;;;8.10;2.88;;;;;;;;;;5093475;28;20035;-81
2022/06/16 00:32:48;;;;;;;10.10;2.53;;;;;;;;;;5092687;28;20012;-80
2022/06/16 00:35:14;;;;;;;9.73;2.70;;;;;;;;;;5092841;28;20024;-80
2022/06/16 00:37:40;;;;;;;7.07;2.60;;;;;;;;;;5074349;28;20024;-81
2022/06/16 00:40:06;;;;;;;10.35;2.90;;;;;;;;;;5092696;28;20536;-80
2022/06/16 00:42:32;;;;;;;12.20;2.95;;;;;;;;;;5092237;28;20074;-75
2022/06/16 00:44:58;;;;;;;8.40;2.92;;;;;;;;;;5092382;28;20020;-74
2022/06/16 00:47:30;;;;;;;8.65;2.90;;;;;;;;;;5092036;28;20090;-75
2022/06/16 00:49:59;;;;;;;9.82;2.80;;;;;;;;;;5092371;28;20026;-78
2022/06/16 00:52:29;;;;;;;6.70;2.60;;;;;;;;;;5092225;28;20012;-82
2022/06/16 00:55:09;;;;;;;7.72;3.15;;;;;;;;;;5092413;28;20020;-82
2022/06/16 00:57:43;;;;;;;;;;;;;;;;;;5092700;28;20056;-79
2022/06/16 01:00:20;;;;;;;10.23;3.08;;;;;;;;;;5092277;28;20486;-75
2022/06/16 01:02:45;;;;;;;7.82;2.88;;;;;;;;;;5092017;28;20018;-81
2022/06/16 01:05:11;;;;;;;10.30;3.10;;;;;;;;;;5091927;28;20035;-80
2022/06/16 01:07:40;;;;;;;9.50;3.00;;;;;;;;;;5091743;28;20059;-75
2022/06/16 01:10:07;;;;;;;11.43;3.00;;;;;;;;;;5091952;28;20034;-77
2022/06/16 01:15:51;;;;;;;9.00;3.10;;;;;;;;;;5092039;28;20403;-74
2022/06/16 01:18:41;;;;;;;9.95;2.90;;;;;;;;;;5091371;28;20531;-74
2022/06/16 01:21:20;;;;;;;7.72;2.70;;;;;;;;;;5091537;28;20028;-76
2022/06/16 01:23:56;;;;;;;10.45;3.30;;;;;;;;;;5091341;28;20031;-78
2022/06/16 01:26:58;;;;;;;14.38;3.22;;;;;;;;;;5091703;28;20047;-74
2022/06/16 01:29:57;;;;;;;9.80;3.53;;;;;;;;;;5091616;28;20031;-81
2022/06/16 01:32:48;;;;;;;9.73;3.00;;;;;;;;;;5090707;28;20036;-80
2022/06/16 01:35:35;;;;;;;9.88;3.10;;;;;;;;;;5091240;28;20629;-79
2022/06/16 01:38:13;;;;;;;9.77;3.35;;;;;;;;;;5091361;28;20512;-80
2022/06/16 01:40:51;;;;;;;16.52;3.63;;;;;;;;;;5091357;28;20035;-80
2022/06/16 01:43:30;;;;;;;11.85;3.28;;;;;;;;;;5091251;28;20556;-80
2022/06/16 01:46:05;;;;;;;12.80;3.47;;;;;;;;;;5091755;28;20048;-81
2022/06/16 01:48:33;;;;;;;12.93;3.22;;;;;;;;;;5090840;28;20054;-80
2022/06/16 01:51:04;;;;;;;8.70;3.30;;;;;;;;;;5091420;28;20039;-80
2022/06/16 01:53:39;;;;;;;11.50;2.95;;;;;;;;;;5091317;28;20020;-79
2022/06/16 01:56:19;;;;;;;7.50;2.95;;;;;;;;;;5091467;28;20090;-80
2022/06/16 01:58:52;;;;;;;8.35;3.17;;;;;;;;;;5090814;28;20028;-76
2022/06/16 02:01:21;;;;;;;11.90;3.05;;;;;;;;;;5091215;28;20103;-80
2022/06/16 02:03:52;;;;;;;7.40;3.20;;;;;;;;;;5090831;28;20024;-80
2022/06/16 02:06:26;;;;;;;9.07;2.88;;;;;;;;;;5091051;28;20060;-77
2022/06/16 02:08:57;;;;;;;10.40;3.10;;;;;;;;;;5090809;28;20132;-79
2022/06/16 02:11:31;;;;;;;9.15;3.15;;;;;;;;;;5091089;28;20016;-79
2022/06/16 02:14:09;;;;;;;10.55;3.20;;;;;;;;;;5090756;28;20020;-79
2022/06/16 02:16:37;;;;;;;10.30;3.20;;;;;;;;;;5091067;28;20028;-81
2022/06/16 02:19:07;;;;;;;8.75;3.45;;;;;;;;;;5090439;28;20052;-80
2022/06/16 02:21:35;;;;;;;12.18;3.17;;;;;;;;;;5090661;28;20036;-80
2022/06/16 02:24:03;;;;;;;10.10;3.53;;;;;;;;;;5090558;28;20101;-77
2022/06/16 02:26:29;;;;;;;13.20;3.40;;;;;;;;;;5090631;28;20032;-73
2022/06/16 02:28:57;;;;;;;16.05;3.60;;;;;;;;;;5090355;28;20399;-77
2022/06/16 02:31:51;;;;;;;8.05;3.33;;;;;;;;;;5091018;28;20180;-75
2022/06/16 02:34:23;;;;;;;7.03;2.60;;;;;;;;;;5090411;28;20024;-77
2022/06/16 02:37:18;;;;;;;9.38;3.10;;;;;;;;;;5090754;28;20450;-75
2022/06/16 02:39:57;;;;;;;6.07;2.90;;;;;;;;;;5000162;28;20719;-74
2022/06/16 02:42:29;;;;;;;8.30;2.97;;;;;;;;;;5090279;28;20452;-80
2022/06/16 02:45:01;;;;;;;10.02;2.90;;;;;;;;;;5090383;28;20028;-76
2022/06/16 02:47:48;;;;;;;10.18;3.22;;;;;;;;;;5090273;28;20047;-78
2022/06/16 02:50:26;;;;;;;6.88;2.88;;;;;;;;;;5090282;28;20514;-75
2022/06/16 02:53:02;;;;;;;5.28;2.75;;;;;;;;;;5090477;28;20024;-75
2022/06/16 02:55:35;;;;;;;7.15;2.65;;;;;;;;;;5090240;28;20070;-77
2022/06/16 02:58:02;;;;;;;8.82;2.70;;;;;;;;;;5090185;28;20039;-80
2022/06/16 03:00:37;;;;;;;6.88;2.80;;;;;;;;;;5090269;28;20055;-81
2022/06/16 03:03:22;;;;;;;6.32;2.95;;;;;;;;;;5090246;28;20425;-78
2022/06/16 03:05:53;;;;;;;7.20;2.90;;;;;;;;;;5090094;28;20403;-81
2022/06/16 03:08:20;;;;;;;7.47;2.92;;;;;;;;;;5090228;28;20035;-81
2022/06/16 03:10:51;;;;;;;5.18;2.80;;;;;;;;;;5090371;28;20027;-80
2022/06/16 03:13:31;;;;;;;6.30;2.70;;;;;;;;;;5090485;28;20090;-81
2022/06/16 03:15:59;;;;;;;8.27;2.97;;;;;;;;;;5090251;28;20028;-81
2022/06/16 03:18:25;;;;;;;8.13;2.67;;;;;;;;;;5090178;28;20591;-81
2022/06/16 03:20:50;;;;;;;7.95;2.67;;;;;;;;;;5089892;28;20028;-80
2022/06/16 03:23:17;;;;;;;9.20;2.67;;;;;;;;;;5090284;28;20047;-80
2022/06/16 03:25:43;;;;;;;6.70;2.63;;;;;;;;;;5090046;28;20036;-81
2022/06/16 03:28:09;;;;;;;5.93;2.60;;;;;;;;;;5090054;28;20437;-81
2022/06/16 03:30:38;;;;;;;7.60;2.58;;;;;;;;;;5089973;28;20024;-78
2022/06/16 03:33:04;;;;;;;5.70;2.60;;;;;;;;;;5090169;28;20123;-81
2022/06/16 03:35:30;;;;;;;5.82;2.58;;;;;;;;;;5089586;28;20028;-81
2022/06/16 03:37:57;;;;;;;6.78;2.58;;;;;;;;;;5089970;28;20024;-79
2022/06/16 03:40:23;;;;;;;5.40;2.60;;;;;;;;;;5089809;28;20425;-80
2022/06/16 03:42:49;;;;;;;6.10;2.60;;;;;;;;;;5089884;28;20111;-80
2022/06/16 03:45:15;;;;;;;8.57;2.60;;;;;;;;;;5089828;28;20028;-81
2022/06/16 03:47:40;;;;;;;5.07;2.47;;;;;;;;;;5089707;28;20077;-81
2022/06/16 03:50:07;;;;;;;5.47;2.67;;;;;;;;;;5089764;28;20480;-81
2022/06/16 03:52:33;;;;;;;8.48;2.58;;;;;;;;;;5089834;28;20035;-81
2022/06/16 03:54:58;;;;;;;7.47;2.67;;;;;;;;;;5091079;28;20024;-81
2022/06/16 03:57:24;;;;;;;5.28;2.70;;;;;;;;;;5093451;28;20503;-81
2022/06/16 03:59:49;;;;;;;6.07;2.70;;;;;;;;;;5093371;28;20031;-80
2022/06/16 04:02:14;;;;;;;7.45;2.83;;;;;;;;;;5093267;28;20103;-79
2022/06/16 04:04:40;;;;;;;5.43;2.60;;;;;;;;;;5093414;28;20016;-81
2022/06/16 04:07:06;;;;;;;6.45;2.83;;;;;;;;;;5093463;28;20036;-82
2022/06/16 04:09:31;;;;;;;7.18;2.80;;;;;;;;;;5093279;28;20016;-79
2022/06/16 04:11:56;;;;;;;5.95;2.67;;;;;;;;;;5093187;28;20595;-81
2022/06/16 04:14:22;;;;;;;5.93;2.70;;;;;;;;;;5093089;28;20044;-83
2022/06/16 04:16:49;;;;;;;6.15;2.80;;;;;;;;;;5092729;28;20016;-80
2022/06/16 04:19:17;;;;;;;7.97;2.80;;;;;;;;;;5092898;28;20377;-81
2022/06/16 04:21:44;;;;;;;8.35;2.65;;;;;;;;;;5092868;28;20031;-81
2022/06/16 04:24:10;;;;;;;6.80;2.83;;;;;;;;;;5093240;28;20495;-81
2022/06/16 04:26:39;;;;;;;7.38;2.80;;;;;;;;;;5092868;28;20016;-81
2022/06/16 04:29:06;;;;;;;9.77;3.00;;;;;;;;;;5092756;28;20479;-82
2022/06/16 04:31:32;;;;;;;10.40;3.00;;;;;;;;;;5092613;28;20027;-81
2022/06/16 04:33:58;;;;;;;6.63;2.63;;;;;;;;;;5092828;28;20487;-81
2022/06/16 04:36:24;;;;;;;6.60;3.30;;;;;;;;;;5092312;28;20515;-78
2022/06/16 04:38:49;;;;;;;7.20;2.47;;;;;;;;;;5092518;28;20024;-80
2022/06/16 04:41:16;;;;;;;8.05;2.60;;;;;;;;;;5092559;28;20024;-80
2022/06/16 04:43:42;;;;;;;8.05;2.60;;;;;;;;;;5092644;28;20387;-80
2022/06/16 04:46:08;;;;;;;10.95;3.28;;;;;;;;;;5074118;28;20103;-79
2022/06/16 04:48:35;;;;;;;11.07;2.80;;;;;;;;;;5092174;28;20040;-80
2022/06/16 04:51:02;;;;;;;8.75;2.92;;;;;;;;;;5091968;28;20039;-81
2022/06/16 04:53:28;;;;;;;8.70;2.92;;;;;;;;;;5092450;28;20020;-82
2022/06/16 04:55:55;;;;;;;8.57;2.92;;;;;;;;;;5092096;28;20043;-79
2022/06/16 04:58:20;;;;;;;9.15;3.08;;;;;;;;;;5092122;28;20111;-80
2022/06/16 05:00:47;;;;;;;9.02;2.63;;;;;;;;;;5092189;28;20488;-81
2022/06/16 05:03:13;;;;;;;9.45;2.90;;;;;;;;;;5092217;28;20111;-80
2022/06/16 05:05:38;;;;;;;10.63;3.30;;;;;;;;;;5092068;28;20107;-81
2022/06/16 05:08:04;;;;;;;12.50;3.30;;;;;;;;;;5092216;28;20042;-81
2022/06/16 05:10:29;;;;;;;14.27;3.20;;;;;;;;;;5091960;28;20099;-81
2022/06/16 05:12:55;;;;;;;10.73;3.13;;;;;;;;;;5092087;28;20032;-80
2022/06/16 05:15:20;;;;;;;12.40;3.17;;;;;;;;;;5091895;28;20027;-80
2022/06/16 05:17:45;;;;;;;10.75;2.95;;;;;;;;;;5091431;28;20027;-82
2022/06/16 05:20:11;;;;;;;7.35;3.00;;;;;;;;;;5091780;28;20020;-81
2022/06/16 05:22:37;;;;;;;9.38;2.90;;;;;;;;;;5073385;28;20497;-81
2022/06/16 05:25:02;;;;;;;8.00;3.10;;;;;;;;;;5073827;28;20424;-81
2022/06/16 05:27:28;;;;;;;7.82;3.08;;;;;;;;;;5073546;28;20062;-82
2022/06/16 05:29:53;;;;;;;11.60;3.30;;;;;;;;;;5091556;28;20467;-81
2022/06/16 05:32:19;;;;;;;6.82;3.17;;;;;;;;;;5091391;28;20017;-83
2022/06/16 05:34:44;;;;;;;11.05;3.25;;;;;;;;;;5091744;28;20024;-81
2022/06/16 05:37:09;;;;;;;9.25;3.17;;;;;;;;;;5091209;28;20023;-78
2022/06/16 05:39:35;;;;;;;8.98;2.92;;;;;;;;;;5091672;28;20103;-81
2022/06/16 05:42:00;;;;;;;7.28;2.70;;;;;;;;;;5091433;28;20094;-82
2022/06/16 05:44:26;;;;;;;9.10;2.80;;;;;;;;;;5091643;28;20448;-81
2022/06/16 05:46:52;;;;;;;7.57;2.75;;;;;;;;;;5090881;28;20047;-81
2022/06/16 05:49:18;;;;;;;6.05;2.90;;;;;;;;;;5091315;28;20027;-82
2022/06/16 05:51:44;;;;;;;8.05;2.90;;;;;;;;;;5090810;28;20024;-79
2022/06/16 05:54:10;;;;;;;11.63;2.97;;;;;;;;;;5091110;28;20103;-82
2022/06/16 05:56:38;;;;;;;10.55;3.10;;;;;;;;;;5090873;28;20102;-80
2022/06/16 05:59:03;;;;;;;12.82;3.05;;;;;;;;;;5091281;28;20107;-81
2022/06/16 06:01:29;;;;;;;13.30;2.80;;;;;;;;;;5091034;28;20493;-80
2022/06/16 06:03:54;;;;;;;17.23;2.83;;;;;;;;;;5091417;28;20103;-81
2022/06/16 06:06:20;;;;;;;15.00;2.78;;;;;;;;;;5090597;28;20281;-80
2022/06/16 06:17:09;;;;;;;15.23;4.10;;;;;;;;;;5090553;28;20043;-80
2022/06/16 06:19:34;;;;;;;13.38;4.07;;;;;;;;;;5090781;28;20032;-81
2022/06/16 06:22:11;;;;;;;15.88;5.82;;;;;;;;;;5090399;28;20028;-81
2022/06/16 06:24:42;;;;;;;10.68;4.60;;;;;;;;;;5090726;28;20084;-81
2022/06/16 06:27:14;;;;;;;11.80;4.90;;;;;;;;;;5090338;28;20107;-81
2022/06/16 06:29:40;;;;;;;10.27;4.50;;;;;;;;;;5090347;28;20024;-80
2022/06/16 06:32:07;;;;;;;13.75;4.70;;;;;;;;;;5090084;28;20023;-81
2022/06/16 06:34:32;;;;;;;13.25;4.13;;;;;;;;;;5090568;28;20105;-82
2022/06/16 06:36:58;;;;;;;10.73;4.00;;;;;;;;;;5090284;28;20468;-79
2022/06/16 06:39:23;;;;;;;14.07;4.22;;;;;;;;;;5090404;28;20024;-82
2022/06/16 06:41:49;;;;;;;14.50;4.15;;;;;;;;;;5090628;28;20432;-81
2022/06/16 06:44:15;;;;;;;19.60;4.85;;;;;;;;;;5090614;28;20023;-77
2022/06/16 06:46:40;;;;;;;17.95;4.45;;;;;;;;;;5090159;28;20127;-77
2022/06/16 06:49:06;;;;;;;18.88;4.25;;;;;;;;;;5089950;28;20088;-75
2022/06/16 06:51:32;;;;;;;16.27;4.53;;;;;;;;;;5090232;28;20055;-78
2022/06/16 06:53:58;;;;;;;23.15;4.78;;;;;;;;;;5090360;28;20403;-82
2022/06/16 06:56:24;;;;;;;18.55;4.78;;;;;;;;;;5072379;28;20024;-80
2022/06/16 06:58:51;;;;;;;17.02;4.57;;;;;;;;;;5090280;28;20097;-82
2022/06/16 07:01:17;;;;;;;17.52;4.20;;;;;;;;;;5090637;28;20046;-81
2022/06/16 07:03:42;;;;;;;26.55;4.55;;;;;;;;;;5090041;28;20411;-79
2022/06/16 07:06:08;;;;;;;26.25;5.20;;;;;;;;;;5090341;28;20032;-82
2022/06/16 07:08:34;;;;;;;20.10;5.15;;;;;;;;;;5090032;28;20028;-81
2022/06/16 07:10:59;;;;;;;16.23;4.85;;;;;;;;;;5091215;28;20032;-81
2022/06/16 07:13:25;;;;;;;20.38;4.70;;;;;;;;;;5091180;28;20349;-82
2022/06/16 07:15:51;;;;;;;19.55;4.38;;;;;;;;;;5091421;28;20081;-82
2022/06/16 07:18:16;;;;;;;20.67;4.63;;;;;;;;;;5090780;28;20115;-80
2022/06/16 07:20:42;;;;;;;20.40;5.00;;;;;;;;;;5090968;28;20032;-80
2022/06/16 07:23:07;;;;;;;21.15;5.00;;;;;;;;;;5090888;28;20050;-81
2022/06/16 07:25:33;;;;;;;19.15;4.80;;;;;;;;;;5099219;28;20035;-81
2022/06/16 07:28:00;;;;;;;21.50;5.57;;;;;;;;;;5105436;28;20034;-81
2022/06/16 07:30:26;;;;;;;15.55;4.82;;;;;;;;;;5106796;28;20028;-81
2022/06/16 07:32:52;;;;;;;21.48;5.20;;;;;;;;;;5109408;28;20028;-74
2022/06/16 07:35:20;;;;;;;24.40;5.07;;;;;;;;;;5109226;28;20039;-81
2022/06/16 07:37:47;;;;;;;23.02;5.28;;;;;;;;;;5108714;28;20028;-81
2022/06/16 07:40:14;;;;;;;20.58;4.82;;;;;;;;;;5100360;28;20032;-80
2022/06/16 07:42:39;;;;;;;22.33;5.20;;;;;;;;;;5094285;28;20089;-77
2022/06/16 07:45:06;;;;;;;27.45;5.20;;;;;;;;;;5093910;28;20028;-81
2022/06/16 07:47:32;;;;;;;17.15;4.80;;;;;;;;;;5093077;28;20056;-80
2022/06/16 07:49:58;;;;;;;14.13;4.70;;;;;;;;;;5093660;28;20081;-81
2022/06/16 07:52:23;;;;;;;24.30;4.72;;;;;;;;;;5093908;28;20113;-80
2022/06/16 07:54:49;;;;;;;15.52;5.00;;;;;;;;;;5093945;28;20533;-81
2022/06/16 07:57:16;;;;;;;21.27;5.53;;;;;;;;;;5093787;28;20024;-80
2022/06/16 07:59:43;;;;;;;28.75;5.28;;;;;;;;;;5093583;28;20024;-80
2022/06/16 08:02:09;;;;;;;16.95;5.32;;;;;;;;;;5093373;28;20092;-75
2022/06/16 08:04:34;;;;;;;20.30;5.35;;;;;;;;;;5093091;28;20387;-74
2022/06/16 08:07:02;;;;;;;18.85;4.88;;;;;;;;;;5093070;28;20028;-75
2022/06/16 08:09:33;;;;;;;14.68;4.70;;;;;;;;;;5093208;28;20035;-75
2022/06/16 08:12:06;;;;;;;15.52;5.05;;;;;;;;;;5093369;28;20028;-77
2022/06/16 08:14:32;;;;;;;14.00;4.90;;;;;;;;;;5092942;28;20518;-73
2022/06/16 08:16:58;;;;;;;12.65;4.70;;;;;;;;;;5093248;28;20016;-75
2022/06/16 08:19:23;;;;;;;12.10;4.75;;;;;;;;;;5057783;28;20260;-74
2022/06/16 08:21:49;;;;;;;14.63;4.45;;;;;;;;;;5092915;28;20624;-74
2022/06/16 08:24:15;;;;;;;13.02;4.50;;;;;;;;;;5092523;28;20103;-79
2022/06/16 08:26:42;;;;;;;13.43;4.28;;;;;;;;;;5092690;28;20076;-74
2022/06/16 08:29:10;;;;;;;14.13;4.45;;;;;;;;;;5092524;28;20038;-74
2022/06/16 08:31:36;;;;;;;15.25;4.55;;;;;;;;;;5092677;28;20024;-80
2022/06/16 08:34:02;;;;;;;14.18;4.72;;;;;;;;;;5092585;28;20027;-77
2022/06/16 08:36:27;;;;;;;18.15;4.80;;;;;;;;;;5092906;28;20026;-73
2022/06/16 08:38:53;;;;;;;17.40;4.70;;;;;;;;;;5092547;28;20692;-73
2022/06/16 08:41:53;;;;;;;18.27;4.60;;;;;;;;;;5092114;28;20028;-76
2022/06/16 08:44:32;;;;;;;15.52;4.68;;;;;;;;;;5085208;28;20043;-74
2022/06/16 08:47:13;;;;;;;13.47;4.90;;;;;;;;;;5092231;28;20044;-73
2022/06/16 08:50:13;;;;;;;20.98;4.30;;;;;;;;;;5092188;28;20415;-76
2022/06/16 08:53:16;;;;;;;17.40;4.25;;;;;;;;;;5092538;28;20056;-74
2022/06/16 08:55:55;;;;;;;20.08;5.20;;;;;;;;;;5092364;28;20459;-73
2022/06/16 08:58:42;;;;;;;17.13;4.70;;;;;;;;;;5092029;28;20044;-73
2022/06/16 09:01:24;;;;;;;19.70;4.57;;;;;;;;;;5092117;28;20076;-80
2022/06/16 09:04:00;;;;;;;17.13;5.22;;;;;;;;;;5091871;28;20020;-77
2022/06/16 09:07:03;;;;;;;22.40;4.90;;;;;;;;;;5092019;28;20028;-80
2022/06/16 09:12:30;;;;;;;19.80;4.65;;;;;;;;;;5092222;28;20066;-80
2022/06/16 09:15:11;;;;;;;19.88;4.90;;;;;;;;;;5091835;28;20515;-81
2022/06/16 09:17:51;;;;;;;15.23;4.70;;;;;;;;;;5091980;28;20487;-80
2022/06/16 09:20:40;;;;;;;25.23;5.22;;;;;;;;;;5091319;28;20024;-80
2022/06/16 09:23:14;;;;;;;18.70;4.82;;;;;;;;;;5091832;28;20112;-80
2022/06/16 09:25:58;;;;;;;19.15;5.40;;;;;;;;;;5091828;28;20024;-80
2022/06/16 09:28:31;;;;;;;18.60;5.03;;;;;;;;;;5091397;28;20035;-77
2022/06/16 09:31:00;;;;;;;18.33;5.20;;;;;;;;;;5091977;28;20028;-79
2022/06/16 09:33:34;;;;;;;15.35;5.18;;;;;;;;;;5091609;28;20552;-80
2022/06/16 09:36:06;;;;;;;24.02;5.40;;;;;;;;;;5091525;28;20399;-80
2022/06/16 09:38:46;;;;;;;20.48;5.00;;;;;;;;;;5091391;28;20032;-79
2022/06/16 09:44:01;;;;;;;18.73;4.90;;;;;;;;;;5091221;28;20039;-79
2022/06/16 09:46:32;;;;;;;15.05;4.97;;;;;;;;;;5091297;28;20065;-81
2022/06/16 09:49:02;;;;;;;17.25;4.63;;;;;;;;;;5091233;28;20035;-77
2022/06/16 09:51:31;;;;;;;16.13;4.60;;;;;;;;;;5091073;28;20099;-79
2022/06/16 09:54:03;;;;;;;20.77;5.00;;;;;;;;;;5090558;28;20035;-79
2022/06/16 09:56:31;;;;;;;14.43;4.70;;;;;;;;;;5072802;28;20028;-76
2022/06/16 09:59:01;;;;;;;17.10;4.47;;;;;;;;;;5090888;28;20055;-80
2022/06/16 10:01:35;;;;;;;16.77;4.65;;;;;;;;;;5091224;28;20443;-79
2022/06/16 10:04:06;;;;;;;16.77;4.63;;;;;;;;;;5091170;28;20032;-80
2022/06/16 10:06:38;;;;;;;16.67;4.78;;;;;;;;;;5091197;28;20557;-78
2022/06/16 10:09:27;;;;;;;14.90;4.82;;;;;;;;;;5090958;28;20066;-81
2022/06/16 10:12:01;;;;;;;18.73;4.85;;;;;;;;;;5091117;28;20038;-79
2022/06/16 10:14:48;;;;;;;16.33;5.15;;;;;;;;;;5090727;28;20029;-78
2022/06/16 10:17:17;;;;;;;15.60;5.32;;;;;;;;;;5090916;28;20028;-78
2022/06/16 10:19:44;;;;;;;13.70;4.68;;;;;;;;;;5090699;28;20020;-79
2022/06/16 10:22:14;;;;;;;19.30;5.20;;;;;;;;;;5090781;28;20024;-79
2022/06/16 10:24:46;;;;;;;16.35;4.60;;;;;;;;;;5090902;28;20020;-80
2022/06/16 10:27:14;;;;;;;15.02;4.43;;;;;;;;;;5090706;28;20035;-81
2022/06/16 10:29:51;;;;;;;18.70;5.22;;;;;;;;;;5090648;28;20031;-80
2022/06/16 10:32:17;;;;;;;14.77;4.68;;;;;;;;;;5090469;28;20483;-78
2022/06/16 10:34:43;;;;;;;18.02;4.78;;;;;;;;;;5090315;28;20024;-80
2022/06/16 10:37:19;;;;;;;19.70;4.93;;;;;;;;;;5090731;28;20032;-75
2022/06/16 10:39:54;;;;;;;18.27;4.90;;;;;;;;;;5090551;28;20020;-79
2022/06/16 10:42:29;;;;;;;11.77;4.28;;;;;;;;;;5090417;28;20016;-78
2022/06/16 10:44:59;;;;;;;14.68;4.63;;;;;;;;;;5090330;28;20502;-74
2022/06/16 10:47:40;;;;;;;19.42;4.78;;;;;;;;;;5090173;28;20040;-74
2022/06/16 10:50:08;;;;;;;14.77;4.68;;;;;;;;;;5089976;28;20047;-74
2022/06/16 10:52:40;;;;;;;15.75;5.05;;;;;;;;;;5089861;28;20059;-79
2022/06/16 10:55:11;;;;;;;14.27;4.40;;;;;;;;;;5089835;28;20383;-74
2022/06/16 10:57:42;;;;;;;13.73;4.53;;;;;;;;;;5090729;28;20418;-73
2022/06/16 11:00:11;;;;;;;19.85;4.60;;;;;;;;;;5090240;28;20024;-74
2022/06/16 11:02:50;;;;;;;14.27;4.90;;;;;;;;;;5090292;28;20070;-75
2022/06/16 11:05:17;;;;;;;12.75;4.90;;;;;;;;;;5093967;28;20024;-74
2022/06/16 11:07:44;;;;;;;14.77;4.63;;;;;;;;;;5094247;28;20020;-72
2022/06/16 11:10:14;;;;;;;12.75;4.53;;;;;;;;;;5075863;28;20584;-76
2022/06/16 11:12:47;;;;;;;12.38;4.88;;;;;;;;;;5094197;28;20020;-73
2022/06/16 11:15:31;;;;;;;14.02;4.45;;;;;;;;;;5094195;28;20107;-80
2022/06/16 11:18:00;;;;;;;16.35;4.80;;;;;;;;;;5094390;28;20031;-74
2022/06/16 11:20:36;;;;;;;17.38;4.85;;;;;;;;;;5094154;28;20027;-74
2022/06/16 11:23:18;;;;;;;12.05;4.53;;;;;;;;;;5094116;28;20051;-73
2022/06/16 11:25:44;;;;;;;14.98;4.78;;;;;;;;;;5094173;28;20040;-81
2022/06/16 11:28:10;;;;;;;12.25;4.30;;;;;;;;;;5093794;28;20492;-74
2022/06/16 11:30:47;;;;;;;11.15;4.30;;;;;;;;;;5093686;28;20032;-73
2022/06/16 11:34:11;;;;;;;13.20;4.38;;;;;;;;;;5093933;28;20115;-74
2022/06/16 11:37:08;;;;;;;11.60;4.35;;;;;;;;;;4977967;28;20565;-74
2022/06/16 11:40:19;;;;;;;12.52;4.10;;;;;;;;;;4991764;28;20087;-73
2022/06/16 11:43:14;;;;;;;20.48;3.88;;;;;;;;;;5091633;28;20124;-74
2022/06/16 11:46:10;;;;;;;16.17;3.50;;;;;;;;;;5093709;28;20039;-81
2022/06/16 11:48:54;;;;;;;15.32;4.05;;;;;;;;;;5093480;28;20113;-80
2022/06/16 11:51:28;;;;;;;13.25;4.00;;;;;;;;;;5093128;28;20031;-78
2022/06/16 11:54:05;;;;;;;12.40;4.35;;;;;;;;;;5093781;28;20027;-81
2022/06/16 11:56:46;;;;;;;13.13;4.10;;;;;;;;;;5093501;28;20489;-78
2022/06/16 11:59:32;;;;;;;15.85;4.63;;;;;;;;;;5093673;28;20020;-81
2022/06/16 12:02:08;;;;;;;11.30;4.28;;;;;;;;;;5093259;28;20085;-81
2022/06/16 12:04:39;;;;;;;14.07;4.20;;;;;;;;;;5093651;28;20020;-80
2022/06/16 12:07:35;;;;;;;11.60;4.05;;;;;;;;;;5093170;28;20016;-80
2022/06/16 12:10:36;;;;;;;12.30;4.03;;;;;;;;;;5093207;28;20027;-79
2022/06/16 12:13:27;;;;;;;13.30;4.05;;;;;;;;;;5093101;28;20085;-80
2022/06/16 12:16:34;;;;;;;11.00;4.05;;;;;;;;;;5092559;28;20124;-82
2022/06/16 12:19:17;;;;;;;11.90;4.35;;;;;;;;;;5093326;28;20035;-81
2022/06/16 12:21:46;;;;;;;10.63;4.20;;;;;;;;;;5092712;28;20499;-80
2022/06/16 12:24:38;;;;;;;13.05;4.35;;;;;;;;;;5093219;28;20115;-81
2022/06/16 12:27:03;;;;;;;11.80;3.97;;;;;;;;;;5040926;28;20072;-79
2022/06/16 12:29:50;;;;;;;14.00;3.90;;;;;;;;;;5093003;28;20063;-79
2022/06/16 12:32:34;;;;;;;14.68;3.65;;;;;;;;;;5092391;28;20020;-81
2022/06/16 12:35:20;;;;;;;16.95;3.90;;;;;;;;;;5092861;28;20036;-81
2022/06/16 12:38:15;;;;;;;11.98;3.55;;;;;;;;;;5092887;28;20548;-81
2022/06/16 12:40:55;;;;;;;17.33;3.95;;;;;;;;;;5092322;28;20028;-81
2022/06/16 12:43:35;;;;;;;13.50;3.60;;;;;;;;;;5092471;28;20055;-81
2022/06/16 12:46:08;;;;;;;15.23;3.92;;;;;;;;;;5092243;28;20040;-80
2022/06/16 12:48:54;;;;;;;12.07;3.80;;;;;;;;;;5092750;28;20048;-81
2022/06/16 12:51:22;;;;;;;8.80;3.63;;;;;;;;;;5092177;28;20593;-81
2022/06/16 12:54:08;;;;;;;18.45;4.15;;;;;;;;;;5092553;28;20077;-79
2022/06/16 12:56:53;;;;;;;12.98;3.90;;;;;;;;;;5092295;28;20024;-80
2022/06/16 12:59:24;;;;;;;10.73;3.55;;;;;;;;;;5092369;28;20024;-80
2022/06/16 13:01:54;;;;;;;9.35;3.60;;;;;;;;;;5091859;28;20024;-81
2022/06/16 13:04:27;;;;;;;12.70;3.97;;;;;;;;;;5092246;28;20035;-81
2022/06/16 13:06:54;;;;;;;11.73;3.58;;;;;;;;;;5091874;28;20034;-80
2022/06/16 13:09:20;;;;;;;13.40;3.80;;;;;;;;;;5092108;28;20028;-74
2022/06/16 13:11:50;;;;;;;15.05;3.47;;;;;;;;;;5092010;28;20510;-73
2022/06/16 13:14:28;;;;;;;13.30;3.40;;;;;;;;;;5092116;28;20059;-73
2022/06/16 13:16:55;;;;;;;8.10;3.33;;;;;;;;;;5091934;28;20028;-73
2022/06/16 13:19:26;;;;;;;9.60;3.40;;;;;;;;;;5091989;28;20697;-74
2022/06/16 13:21:58;;;;;;;14.00;3.60;;;;;;;;;;5091401;28;20062;-74
2022/06/16 13:24:39;;;;;;;11.10;3.50;;;;;;;;;;5091812;28;20016;-73
2022/06/16 13:27:23;;;;;;;12.38;3.58;;;;;;;;;;5090626;28;20016;-73
2022/06/16 13:29:51;;;;;;;11.00;4.00;;;;;;;;;;5092099;28;20081;-79
2022/06/16 13:32:40;;;;;;;9.05;3.50;;;;;;;;;;5091547;28;20024;-72
2022/06/16 13:35:12;;;;;;;13.97;4.00;;;;;;;;;;5091927;28;20050;-76
2022/06/16 13:37:43;;;;;;;13.80;4.13;;;;;;;;;;5091541;28;20399;-76
2022/06/16 13:40:08;;;;;;;15.05;3.60;;;;;;;;;;5091560;28;20522;-74
2022/06/16 13:42:54;;;;;;;9.32;3.53;;;;;;;;;;5073100;28;20034;-77
2022/06/16 13:45:24;;;;;;;19.67;4.15;;;;;;;;;;5091572;28;20067;-80
2022/06/16 13:48:14;;;;;;;12.50;3.85;;;;;;;;;;5090797;28;20062;-81
2022/06/16 13:50:40;;;;;;;;;;;;;;;;;;5091893;28;20052;-76
2022/06/16 13:53:07;;;;;;;11.40;3.40;;;;;;;;;;5090962;28;19950;-78
2022/06/16 13:55:41;;;;;;;9.07;3.58;;;;;;;;;;5091384;28;20056;-74
2022/06/16 13:58:19;;;;;;;13.70;3.60;;;;;;;;;;5090854;28;20020;-72
2022/06/16 14:01:00;;;;;;;13.15;3.45;;;;;;;;;;5090985;28;20434;-75
2022/06/16 14:03:26;;;;;;;14.70;3.70;;;;;;;;;;5090646;28;20043;-73
2022/06/16 14:05:55;;;;;;;13.23;3.88;;;;;;;;;;5091009;28;20491;-79
2022/06/16 14:08:23;;;;;;;12.07;3.83;;;;;;;;;;5090792;28;20518;-74
2022/06/16 14:10:55;;;;;;;17.45;3.75;;;;;;;;;;5091108;28;20564;-73
2022/06/16 14:14:00;;;;;;;13.68;3.85;;;;;;;;;;5072422;28;20365;-76
2022/06/16 14:16:37;;;;;;;13.18;3.70;;;;;;;;;;5089688;28;20028;-78
2022/06/16 14:19:20;;;;;;;15.23;3.50;;;;;;;;;;5090673;28;20028;-80
2022/06/16 14:22:02;;;;;;;17.08;3.63;;;;;;;;;;5090445;28;20479;-73
2022/06/16 14:24:39;;;;;;;13.73;3.53;;;;;;;;;;5090642;28;20024;-74
2022/06/16 14:27:12;;;;;;;9.13;3.40;;;;;;;;;;5090485;28;20492;-74
2022/06/16 14:29:39;;;;;;;15.10;3.83;;;;;;;;;;5090702;28;20073;-72
2022/06/16 14:32:11;;;;;;;11.40;3.60;;;;;;;;;;5090650;28;20426;-74
2022/06/16 14:34:43;;;;;;;16.75;3.53;;;;;;;;;;5072367;28;20020;-75
2022/06/16 14:37:25;;;;;;;11.27;3.38;;;;;;;;;;5090148;28;20028;-77
2022/06/16 14:40:08;;;;;;;16.45;3.67;;;;;;;;;;5090097;28;20479;-74
2022/06/16 14:42:37;;;;;;;13.38;3.63;;;;;;;;;;5089900;28;20330;-73
2022/06/16 14:45:26;;;;;;;15.25;3.50;;;;;;;;;;5090510;28;20107;-75
2022/06/16 14:47:55;;;;;;;12.70;3.47;;;;;;;;;;5077219;28;20051;-74
2022/06/16 14:50:30;;;;;;;13.38;3.47;;;;;;;;;;5090252;28;20044;-73
2022/06/16 14:53:08;;;;;;;12.40;3.50;;;;;;;;;;5090133;28;20552;-73
2022/06/16 14:56:06;;;;;;;13.60;3.40;;;;;;;;;;5072190;28;20054;-80
2022/06/16 14:58:43;;;;;;;13.10;3.40;;;;;;;;;;5089984;28;20024;-75
2022/06/16 15:01:10;;;;;;;11.88;3.65;;;;;;;;;;5090318;28;20028;-76
2022/06/16 15:03:36;;;;;;;15.07;3.35;;;;;;;;;;5089983;28;20086;-72
2022/06/16 15:06:05;;;;;;;12.82;3.80;;;;;;;;;;5090531;28;20036;-73
2022/06/16 15:08:31;;;;;;;12.60;3.92;;;;;;;;;;5090127;28;20040;-73
2022/06/16 15:11:00;;;;;;;12.65;3.33;;;;;;;;;;5090276;28;20028;-73
2022/06/16 15:13:33;;;;;;;12.48;3.67;;;;;;;;;;5089850;28;20024;-73
2022/06/16 15:16:04;;;;;;;13.00;3.20;;;;;;;;;;5090155;28;20028;-73
2022/06/16 15:18:33;;;;;;;14.55;3.65;;;;;;;;;;5089827;28;20020;-73
2022/06/16 15:21:02;;;;;;;11.50;3.40;;;;;;;;;;5089939;28;20035;-73
2022/06/16 15:23:34;;;;;;;18.93;3.70;;;;;;;;;;5089794;28;20111;-73